KBZN/BZN METAR and TAF weather

Enter ICAO airport designator
Station Type Date Time Source
KBZN METAR 2022/06/28 09:56 UTC NOAA

KBZN 280956Z AUTO 00000KT 10SM CLR 12/07 A3017 RMK AO2 SLP177 T01170072


Station Type Date Time Source
KBZN Decoded METAR 2022/06/28 09:56 UTC NOAA

BOZEMAN GALLATIN FIELD, MT, United States (KBZN) 45-47N 111-09W 1361M
Jun 28, 2022 - 05:56 AM EDT / 2022.06.28 0956 UTC
Wind: Calm:0
Visibility: 10 mile(s):0
Sky conditions: clear
Temperature: 53.1 F (11.7 C)
Dew Point: 45.0 F (7.2 C)
Relative Humidity: 73%
Pressure (altimeter): 30.17 in. Hg (1021 hPa)
ob: KBZN 280956Z AUTO 00000KT 10SM CLR 12/07 A3017 RMK AO2 SLP177 T01170072
cycle: 10

Station Type Date Time Source
KBZN TAF 2022/06/28 06:46 UTC NOAA

TAF KBZN 280544Z 2806/2912 VRB06KT P6SM SCT150
FM282000 22013G22KT P6SM VCTS FEW070CB BKN100 PROB30 2820/2902 VRB25G40KT 4SM TSRA BKN070CB
FM290400 15005KT P6SM SCT100

Example: see airport list